createdAt,value
2023-03-06T00:00:35.549Z,4.07
2023-03-06T00:03:03.150Z,4.35
2023-03-06T00:05:30.758Z,3.63
2023-03-06T00:07:58.358Z,3.63
2023-03-06T00:10:27.181Z,4.18
2023-03-06T00:12:55.071Z,4.20
2023-03-06T00:15:24.282Z,4.55
2023-03-06T00:17:52.131Z,4.20
2023-03-06T00:20:19.757Z,4.25
2023-03-06T00:22:47.350Z,4.18
2023-03-06T00:25:15.870Z,2.38
2023-03-06T00:27:43.469Z,2.90
2023-03-06T00:30:12.857Z,2.22
2023-03-06T00:32:42.017Z,2.83
2023-03-06T00:35:09.887Z,2.58
2023-03-06T00:37:37.449Z,2.53
2023-03-06T00:40:05.790Z,2.50
2023-03-06T00:42:33.326Z,2.55
2023-03-06T00:45:00.881Z,2.75
2023-03-06T00:47:28.416Z,2.40
2023-03-06T00:49:57.230Z,2.50
2023-03-06T00:52:24.744Z,2.17
2023-03-06T00:54:52.324Z,2.35
2023-03-06T00:57:19.819Z,2.65
2023-03-06T00:59:47.304Z,2.50
2023-03-06T01:02:14.865Z,2.60
2023-03-06T01:04:42.555Z,2.95
2023-03-06T01:07:11.462Z,2.90
2023-03-06T01:09:39.041Z,2.60
2023-03-06T01:12:06.772Z,2.85
2023-03-06T01:14:34.326Z,2.67
2023-03-06T01:17:01.815Z,2.83
2023-03-06T01:19:29.324Z,3.03
2023-03-06T01:21:56.818Z,3.13
2023-03-06T01:24:25.950Z,3.35
2023-03-06T01:26:53.449Z,2.75
2023-03-06T01:29:21.007Z,3.20
2023-03-06T01:31:48.537Z,3.15
2023-03-06T01:34:16.062Z,3.00
2023-03-06T01:36:43.541Z,3.60
2023-03-06T01:39:11.298Z,3.40
2023-03-06T01:41:40.146Z,3.38
2023-03-06T01:44:07.630Z,3.47
2023-03-06T01:46:41.889Z,3.97
2023-03-06T01:49:15.394Z,3.83
2023-03-06T01:51:46.342Z,3.75
2023-03-06T01:54:16.493Z,3.30
2023-03-06T01:56:47.388Z,3.28
2023-03-06T01:59:14.989Z,4.60
2023-03-06T02:01:42.726Z,4.20
2023-03-06T02:04:10.967Z,4.50
2023-03-06T02:06:39.537Z,4.15
2023-03-06T02:09:07.466Z,4.10
2023-03-06T02:11:35.076Z,4.40
2023-03-06T02:14:04.064Z,3.88
2023-03-06T02:16:33.407Z,4.60
2023-03-06T02:19:01.923Z,4.03
2023-03-06T02:21:31.761Z,4.22
2023-03-06T02:24:03.180Z,4.07
2023-03-06T02:26:32.651Z,4.40
2023-03-06T02:29:00.110Z,4.90
2023-03-06T02:31:28.926Z,4.05
2023-03-06T02:34:07.496Z,4.63
2023-03-06T02:36:36.265Z,3.55
2023-03-06T02:39:04.062Z,4.20
2023-03-06T02:41:32.991Z,4.43
2023-03-06T02:44:00.509Z,3.83
2023-03-06T02:46:28.013Z,4.43
2023-03-06T02:48:55.547Z,3.80
2023-03-06T02:51:23.565Z,4.03
2023-03-06T02:53:51.064Z,4.03
2023-03-06T02:56:19.207Z,3.13
2023-03-06T02:58:48.389Z,4.00
2023-03-06T03:01:16.241Z,3.88
2023-03-06T03:03:43.742Z,3.60
2023-03-06T03:06:11.235Z,2.63
2023-03-06T03:08:38.810Z,3.33
2023-03-06T03:11:06.538Z,2.45
2023-03-06T03:13:34.056Z,2.78
2023-03-06T03:16:03.653Z,3.10
2023-03-06T03:18:31.228Z,1.92
2023-03-06T03:20:58.732Z,3.20
2023-03-06T03:23:26.527Z,2.50
2023-03-06T03:25:54.005Z,1.95
2023-03-06T03:28:21.491Z,2.22
2023-03-06T03:30:49.024Z,2.15
2023-03-06T03:33:17.903Z,2.72
2023-03-06T03:35:45.421Z,2.05
2023-03-06T03:38:12.937Z,2.08
2023-03-06T03:40:40.423Z,2.03
2023-03-06T03:43:07.992Z,2.45
2023-03-06T03:45:35.458Z,2.40
2023-03-06T03:48:02.995Z,2.25
2023-03-06T03:50:31.826Z,2.00
2023-03-06T03:52:59.308Z,2.47
2023-03-06T03:55:27.167Z,2.35
2023-03-06T03:57:54.713Z,2.35
2023-03-06T04:00:22.445Z,2.55
2023-03-06T04:02:49.952Z,2.20
2023-03-06T04:05:17.873Z,2.13
2023-03-06T04:07:46.769Z,1.50
2023-03-06T04:10:14.567Z,2.05
2023-03-06T04:12:42.049Z,1.88
2023-03-06T04:15:09.863Z,2.40
2023-03-06T04:17:38.044Z,2.42
2023-03-06T04:20:05.949Z,2.03
2023-03-06T04:22:33.446Z,2.42
2023-03-06T04:25:02.399Z,2.38
2023-03-06T04:27:29.901Z,1.77
2023-03-06T04:29:57.461Z,2.53
2023-03-06T04:32:25.291Z,2.60
2023-03-06T04:34:52.866Z,3.38
2023-03-06T04:37:21.333Z,2.78
2023-03-06T04:39:48.890Z,2.95
2023-03-06T04:42:17.783Z,2.40
2023-03-06T04:44:45.457Z,1.98
2023-03-06T04:47:13.239Z,1.80
2023-03-06T04:49:40.857Z,1.67
2023-03-06T04:52:08.474Z,1.75
2023-03-06T04:54:35.950Z,1.98
2023-03-06T04:57:03.418Z,1.83
2023-03-06T04:59:32.245Z,1.70
2023-03-06T05:01:59.731Z,2.15
2023-03-06T05:04:27.283Z,2.05
2023-03-06T05:06:54.787Z,2.33
2023-03-06T05:09:22.291Z,1.83
2023-03-06T05:11:49.814Z,2.47
2023-03-06T05:14:17.302Z,2.65
2023-03-06T05:16:46.256Z,1.90
2023-03-06T05:19:13.845Z,2.17
2023-03-06T05:21:41.328Z,1.95
2023-03-06T05:24:08.945Z,2.22
2023-03-06T05:26:36.426Z,1.77
2023-03-06T05:29:03.960Z,2.13
2023-03-06T05:31:31.538Z,1.63
2023-03-06T05:34:00.647Z,2.20
2023-03-06T05:36:28.219Z,2.50
2023-03-06T05:38:55.940Z,2.53
2023-03-06T05:41:23.476Z,2.58
2023-03-06T05:43:51.138Z,2.85
2023-03-06T05:46:18.733Z,2.55
2023-03-06T05:48:46.977Z,2.55
2023-03-06T05:51:15.996Z,2.72
2023-03-06T05:53:43.549Z,2.25
2023-03-06T05:56:11.264Z,2.17
2023-03-06T05:58:38.824Z,2.50
2023-03-06T06:01:09.842Z,1.92
2023-03-06T06:03:37.408Z,2.22
2023-03-06T06:06:05.149Z,2.35
2023-03-06T06:08:34.058Z,2.85
2023-03-06T06:11:01.859Z,2.63
2023-03-06T06:13:29.313Z,3.17
2023-03-06T06:15:56.891Z,2.78
2023-03-06T06:18:24.385Z,2.38
2023-03-06T06:20:51.889Z,2.35
2023-03-06T06:23:19.409Z,2.58
2023-03-06T06:25:48.261Z,2.72
2023-03-06T06:28:15.792Z,2.65
2023-03-06T06:30:43.326Z,2.63
2023-03-06T06:33:10.856Z,2.80
2023-03-06T06:35:38.394Z,2.55
2023-03-06T06:38:05.907Z,2.67
2023-03-06T06:40:33.476Z,2.75
2023-03-06T06:43:02.343Z,2.92
2023-03-06T06:45:29.823Z,2.33
2023-03-06T06:47:57.477Z,2.85
2023-03-06T06:50:25.043Z,2.15
2023-03-06T06:52:52.550Z,2.58
2023-03-06T06:55:20.056Z,2.80
2023-03-06T06:57:47.609Z,2.28
2023-03-06T07:00:17.914Z,2.40
2023-03-06T07:02:48.985Z,2.35
2023-03-06T07:05:16.774Z,1.77
2023-03-06T07:07:44.861Z,2.38
2023-03-06T07:10:13.677Z,2.70
2023-03-06T07:12:41.191Z,2.63
2023-03-06T07:15:09.464Z,2.38
2023-03-06T07:17:38.341Z,2.20
2023-03-06T07:20:08.248Z,2.50
2023-03-06T07:22:50.004Z,2.63
2023-03-06T07:25:18.898Z,2.72
2023-03-06T07:27:52.693Z,2.80
2023-03-06T07:30:21.286Z,2.85
2023-03-06T07:32:52.747Z,3.50
2023-03-06T07:35:21.096Z,3.78
2023-03-06T07:37:48.755Z,3.17
2023-03-06T07:40:16.369Z,3.20
2023-03-06T07:42:44.100Z,2.78
2023-03-06T07:45:12.691Z,2.85
2023-03-06T07:47:40.421Z,2.78
2023-03-06T07:50:09.923Z,3.03
2023-03-06T07:52:37.653Z,3.10
2023-03-06T07:55:05.536Z,3.70
2023-03-06T07:57:33.103Z,3.33
2023-03-06T08:00:00.596Z,2.65
2023-03-06T08:02:28.150Z,3.08
2023-03-06T08:04:56.167Z,3.08
2023-03-06T08:07:25.044Z,3.42
2023-03-06T08:09:52.542Z,2.92
2023-03-06T08:12:20.016Z,3.53
2023-03-06T08:14:47.572Z,3.75
2023-03-06T08:17:15.114Z,3.90
2023-03-06T08:19:42.607Z,3.15
2023-03-06T08:22:11.092Z,3.15
2023-03-06T08:24:39.926Z,2.55
2023-03-06T08:27:07.489Z,2.13
2023-03-06T08:29:35.073Z,2.90
2023-03-06T08:32:02.638Z,3.08
2023-03-06T08:34:30.353Z,2.10
2023-03-06T08:36:57.932Z,2.58
2023-03-06T08:39:25.450Z,2.20
2023-03-06T08:41:54.383Z,2.30
2023-03-06T08:44:21.919Z,1.77
2023-03-06T08:46:49.506Z,2.30
2023-03-06T08:49:17.020Z,2.47
2023-03-06T08:51:44.675Z,2.17
2023-03-06T08:54:13.050Z,2.33
2023-03-06T08:56:40.579Z,2.42
2023-03-06T08:59:10.432Z,2.53
2023-03-06T09:01:38.882Z,2.40
2023-03-06T09:04:07.762Z,2.50
2023-03-06T09:06:36.668Z,2.70
2023-03-06T09:09:04.635Z,2.85
2023-03-06T09:11:32.312Z,2.58
2023-03-06T09:13:59.957Z,2.70
2023-03-06T09:16:29.012Z,2.25
2023-03-06T09:18:57.808Z,1.83
2023-03-06T09:21:26.172Z,1.60
2023-03-06T09:23:53.810Z,1.85
2023-03-06T09:26:21.363Z,1.38
2023-03-06T09:28:48.938Z,1.73
2023-03-06T09:31:17.428Z,1.35
2023-03-06T09:33:46.516Z,1.45
2023-03-06T09:36:15.596Z,0.93
2023-03-06T09:38:43.154Z,1.10
2023-03-06T09:41:19.286Z,1.35
2023-03-06T09:43:47.863Z,1.13
2023-03-06T09:46:20.133Z,0.85
2023-03-06T09:48:55.338Z,1.50
2023-03-06T09:51:26.365Z,1.55
2023-03-06T09:53:58.831Z,1.33
2023-03-06T09:56:30.994Z,1.15
2023-03-06T09:59:03.067Z,1.10
2023-03-06T10:01:32.938Z,1.15
2023-03-06T10:04:07.843Z,1.00
2023-03-06T10:06:36.057Z,1.10
2023-03-06T10:09:06.550Z,1.15
2023-03-06T10:11:37.523Z,0.82
2023-03-06T10:14:13.149Z,0.80
2023-03-06T10:16:41.056Z,0.82
2023-03-06T10:19:13.173Z,1.02
2023-03-06T10:21:45.487Z,0.95
2023-03-06T10:24:20.167Z,0.80
2023-03-06T10:26:51.007Z,1.08
2023-03-06T10:29:28.380Z,0.80
2023-03-06T10:32:01.704Z,1.13
2023-03-06T10:34:33.507Z,1.05
2023-03-06T10:37:03.372Z,1.02
2023-03-06T10:39:31.473Z,1.00
2023-03-06T10:41:59.136Z,0.70
2023-03-06T10:44:26.702Z,0.82
2023-03-06T10:46:54.805Z,0.90
2023-03-06T10:49:24.732Z,0.75
2023-03-06T10:51:57.619Z,0.80
2023-03-06T10:54:25.170Z,2.70
2023-03-06T10:56:52.652Z,1.13
2023-03-06T10:59:22.787Z,1.60
2023-03-06T11:01:50.987Z,0.95
2023-03-06T11:04:23.877Z,0.93
2023-03-06T11:07:05.406Z,1.08
2023-03-06T11:09:33.433Z,1.08
2023-03-06T11:12:19.733Z,1.00
2023-03-06T11:14:47.365Z,0.90
2023-03-06T11:17:27.576Z,0.88
2023-03-06T11:20:08.344Z,0.65
2023-03-06T11:22:39.536Z,0.88
2023-03-06T11:25:09.053Z,0.85
2023-03-06T11:27:38.124Z,1.02
2023-03-06T11:30:07.847Z,1.15
2023-03-06T11:32:39.337Z,1.02
2023-03-06T11:35:07.713Z,0.65
2023-03-06T11:37:41.402Z,0.90
2023-03-06T11:40:14.671Z,1.00
2023-03-06T11:42:44.376Z,1.00
2023-03-06T11:45:22.575Z,0.68
2023-03-06T11:47:53.541Z,0.95
2023-03-06T11:50:22.670Z,0.80
2023-03-06T11:52:53.672Z,0.73
2023-03-06T11:55:25.673Z,0.90
2023-03-06T11:57:57.977Z,1.17
2023-03-06T12:00:31.957Z,0.63
2023-03-06T12:03:15.708Z,1.13
2023-03-06T12:05:47.254Z,1.00
2023-03-06T12:08:23.514Z,0.63
2023-03-06T12:10:52.439Z,1.08
2023-03-06T12:13:36.617Z,1.00
2023-03-06T12:16:22.797Z,0.77
2023-03-06T12:18:53.468Z,0.70
2023-03-06T12:21:26.465Z,0.90
2023-03-06T12:24:03.726Z,1.10
2023-03-06T12:26:39.987Z,0.70
2023-03-06T12:29:29.353Z,0.60
2023-03-06T12:32:02.084Z,1.00
2023-03-06T12:34:37.024Z,0.70
2023-03-06T12:37:09.775Z,0.90
2023-03-06T12:39:46.917Z,0.70
2023-03-06T12:42:23.950Z,0.80
2023-03-06T12:45:07.700Z,0.80
2023-03-06T12:47:38.211Z,0.80
2023-03-06T12:50:10.984Z,1.08
2023-03-06T12:52:38.537Z,0.90
2023-03-06T12:55:08.769Z,0.70
2023-03-06T12:57:36.292Z,0.77
2023-03-06T13:00:04.021Z,1.05
2023-03-06T13:02:40.938Z,0.80
2023-03-06T13:05:30.313Z,1.13
2023-03-06T13:08:09.635Z,1.10
2023-03-06T13:10:40.688Z,0.95
2023-03-06T13:13:29.204Z,1.00
2023-03-06T13:16:11.122Z,1.58
2023-03-06T13:18:56.510Z,0.70
2023-03-06T13:21:42.564Z,0.88
2023-03-06T13:24:15.499Z,2.28
2023-03-06T13:26:56.240Z,2.58
2023-03-06T13:29:42.097Z,3.25
2023-03-06T13:32:17.205Z,1.23
2023-03-06T13:34:46.764Z,1.20
2023-03-06T13:37:32.776Z,1.67
2023-03-06T13:40:14.781Z,1.70
2023-03-06T13:42:57.188Z,1.73
2023-03-06T13:45:27.674Z,1.70
2023-03-06T13:48:21.421Z,1.38
2023-03-06T13:50:44.793Z,1.40
2023-03-06T13:53:19.589Z,1.83
2023-03-06T13:55:50.673Z,1.60
2023-03-06T14:00:57.827Z,1.90
2023-03-06T14:03:45.397Z,1.98
2023-03-06T14:06:31.466Z,1.40
2023-03-06T14:08:59.798Z,1.70
2023-03-06T14:11:27.601Z,1.85
2023-03-06T14:13:56.078Z,1.73
2023-03-06T14:16:25.665Z,1.80
2023-03-06T14:18:54.708Z,1.85
2023-03-06T14:21:26.821Z,1.70
2023-03-06T14:24:00.574Z,1.50
2023-03-06T14:26:29.675Z,1.50
2023-03-06T14:28:58.256Z,1.90
2023-03-06T14:31:28.990Z,1.60
2023-03-06T14:33:57.235Z,1.40
2023-03-06T14:36:27.016Z,1.83
2023-03-06T14:38:56.902Z,1.92
2023-03-06T14:41:25.285Z,1.70
2023-03-06T14:43:52.853Z,1.83
2023-03-06T14:46:21.192Z,1.88
2023-03-06T14:48:50.439Z,1.55
2023-03-06T14:51:19.054Z,1.35
2023-03-06T14:53:48.089Z,1.40
2023-03-06T14:56:17.152Z,1.00
2023-03-06T14:58:48.557Z,1.50
2023-03-06T15:01:16.453Z,1.58
2023-03-06T15:03:45.374Z,1.20
2023-03-06T15:06:17.486Z,1.10
2023-03-06T15:08:46.912Z,1.17
2023-03-06T15:11:14.481Z,1.13
2023-03-06T15:13:42.015Z,1.40
2023-03-06T15:16:23.431Z,1.50
2023-03-06T15:18:58.909Z,1.50
2023-03-06T15:21:28.780Z,1.35
2023-03-06T15:23:57.309Z,1.20
2023-03-06T15:26:29.171Z,1.40
2023-03-06T15:29:08.173Z,1.20
2023-03-06T15:31:37.199Z,1.35
2023-03-06T15:34:23.472Z,0.95
2023-03-06T15:36:54.607Z,1.05
2023-03-06T15:39:32.591Z,0.93
2023-03-06T15:42:00.141Z,0.80
2023-03-06T15:44:27.728Z,1.13
2023-03-06T15:47:07.745Z,1.00
2023-03-06T15:49:37.285Z,0.82
2023-03-06T15:52:06.433Z,1.20
2023-03-06T15:54:34.078Z,1.48
2023-03-06T15:57:01.932Z,1.20
2023-03-06T15:59:32.875Z,1.25
2023-03-06T16:02:03.265Z,0.95
2023-03-06T16:04:30.883Z,1.15
2023-03-06T16:06:58.490Z,1.05
2023-03-06T16:09:27.382Z,1.20
2023-03-06T16:11:55.010Z,1.17
2023-03-06T16:14:23.913Z,1.15
2023-03-06T16:16:52.394Z,1.23
2023-03-06T16:19:26.360Z,0.88
2023-03-06T16:21:55.003Z,1.00
2023-03-06T16:24:22.553Z,1.52
2023-03-06T16:26:52.543Z,1.65
2023-03-06T16:29:20.886Z,0.95
2023-03-06T16:31:48.502Z,1.20
2023-03-06T16:34:16.680Z,1.00
2023-03-06T16:36:44.243Z,1.10
2023-03-06T16:39:13.772Z,0.90
2023-03-06T16:41:41.286Z,1.30
2023-03-06T16:44:10.876Z,1.13
2023-03-06T16:46:39.640Z,1.40
2023-03-06T16:49:07.553Z,1.30
2023-03-06T16:51:37.140Z,1.70
2023-03-06T16:54:04.756Z,1.55
2023-03-06T16:56:32.258Z,1.27
2023-03-06T16:58:59.827Z,1.33
2023-03-06T17:01:28.769Z,0.98
2023-03-06T17:03:56.349Z,0.90
2023-03-06T17:06:23.899Z,1.40
2023-03-06T17:08:52.108Z,2.15
2023-03-06T17:11:20.568Z,2.63
2023-03-06T17:13:48.172Z,2.40
2023-03-06T17:16:17.033Z,1.95
2023-03-06T17:18:46.491Z,2.42
2023-03-06T17:21:15.486Z,2.05
2023-03-06T17:23:43.094Z,2.35
2023-03-06T17:26:11.789Z,5.97
2023-03-06T17:28:39.657Z,6.95
2023-03-06T17:31:12.071Z,3.53
2023-03-06T17:33:39.804Z,1.70
2023-03-06T17:36:09.713Z,1.35
2023-03-06T17:38:37.249Z,1.77
2023-03-06T17:41:04.844Z,1.80
2023-03-06T17:43:32.366Z,1.55
2023-03-06T17:46:03.019Z,1.55
2023-03-06T17:48:30.601Z,3.97
2023-03-06T17:50:58.303Z,2.67
2023-03-06T17:53:27.292Z,3.00
2023-03-06T17:55:54.734Z,3.00
2023-03-06T17:58:22.207Z,4.03
2023-03-06T18:00:49.708Z,5.55
2023-03-06T18:03:17.259Z,5.60
2023-03-06T18:05:44.750Z,2.88
2023-03-06T18:08:12.317Z,4.13
2023-03-06T18:10:41.835Z,4.13
2023-03-06T18:13:09.633Z,4.60
2023-03-06T18:15:39.121Z,4.68
2023-03-06T18:18:06.765Z,5.63
2023-03-06T18:20:34.283Z,3.92
2023-03-06T18:23:03.680Z,2.88
2023-03-06T18:25:32.248Z,2.65
2023-03-06T18:28:01.221Z,3.25
2023-03-06T18:30:28.698Z,3.28
2023-03-06T18:32:56.218Z,3.72
2023-03-06T18:35:23.780Z,5.93
2023-03-06T18:37:52.384Z,5.32
2023-03-06T18:40:20.736Z,4.53
2023-03-06T18:42:48.955Z,3.15
2023-03-06T18:45:17.983Z,3.70
2023-03-06T18:47:45.533Z,3.88
2023-03-06T18:50:17.286Z,3.90
2023-03-06T18:52:44.789Z,3.60
2023-03-06T18:55:12.827Z,4.05
2023-03-06T18:57:40.852Z,3.97
2023-03-06T19:00:08.949Z,4.63
2023-03-06T19:02:37.801Z,3.72
2023-03-06T19:05:05.490Z,3.90
2023-03-06T19:07:33.028Z,3.67
2023-03-06T19:10:00.581Z,4.32
2023-03-06T19:12:28.015Z,4.20
2023-03-06T19:14:55.704Z,4.70
2023-03-06T19:17:24.941Z,4.22
2023-03-06T19:19:55.026Z,4.82
2023-03-06T19:22:23.077Z,5.05
2023-03-06T19:24:50.748Z,4.75
2023-03-06T19:27:18.239Z,5.47
2023-03-06T19:29:45.752Z,6.28
2023-03-06T19:32:13.348Z,4.85
2023-03-06T19:34:40.965Z,5.45
2023-03-06T19:37:10.194Z,5.50
2023-03-06T19:39:37.728Z,5.63
2023-03-06T19:42:05.490Z,5.32
2023-03-06T19:44:33.014Z,5.18
2023-03-06T19:47:00.534Z,5.45
2023-03-06T19:49:28.062Z,5.35
2023-03-06T19:51:55.624Z,6.28
2023-03-06T19:54:25.465Z,6.60
2023-03-06T19:56:53.023Z,6.25
2023-03-06T19:59:20.552Z,5.57
2023-03-06T20:01:48.112Z,5.90
2023-03-06T20:04:16.868Z,6.40
2023-03-06T20:06:45.386Z,7.07
2023-03-06T20:09:13.036Z,6.88
2023-03-06T20:11:41.999Z,7.20
2023-03-06T20:14:09.961Z,6.70
2023-03-06T20:16:37.670Z,7.65
2023-03-06T20:19:05.770Z,7.72
2023-03-06T20:21:35.293Z,6.07
2023-03-06T20:24:02.792Z,6.43
2023-03-06T20:26:30.639Z,5.75
2023-03-06T20:28:59.558Z,5.55
2023-03-06T20:31:28.241Z,5.85
2023-03-06T20:33:57.394Z,5.75
2023-03-06T20:36:27.183Z,5.13
2023-03-06T20:38:54.785Z,5.50
2023-03-06T20:41:23.027Z,5.65
2023-03-06T20:43:50.548Z,4.38
2023-03-06T20:46:20.169Z,5.32
2023-03-06T20:48:48.678Z,5.53
2023-03-06T20:51:17.575Z,5.32
2023-03-06T20:53:45.094Z,6.03
2023-03-06T20:56:13.407Z,5.55
2023-03-06T20:58:40.889Z,5.55
2023-03-06T21:01:08.450Z,4.90
2023-03-06T21:03:37.376Z,5.65
2023-03-06T21:06:05.521Z,5.90
2023-03-06T21:08:32.989Z,5.13
2023-03-06T21:11:00.584Z,5.10
2023-03-06T21:13:28.105Z,6.07
2023-03-06T21:15:55.626Z,5.93
2023-03-06T21:18:23.212Z,5.68
2023-03-06T21:20:52.121Z,5.57
2023-03-06T21:23:19.572Z,6.03
2023-03-06T21:25:50.028Z,5.13
2023-03-06T21:28:18.004Z,5.38
2023-03-06T21:30:46.326Z,5.78
2023-03-06T21:33:15.900Z,5.43
2023-03-06T21:35:43.843Z,5.03
2023-03-06T21:38:13.115Z,5.18
2023-03-06T21:40:40.685Z,5.43
2023-03-06T21:43:08.855Z,5.63
2023-03-06T21:45:36.390Z,5.43
2023-03-06T21:48:04.145Z,5.00
2023-03-06T21:50:31.664Z,5.00
2023-03-06T21:52:59.180Z,4.93
2023-03-06T21:55:28.329Z,4.35
2023-03-06T21:57:56.304Z,4.63
2023-03-06T22:00:25.644Z,5.45
2023-03-06T22:02:53.353Z,4.88
2023-03-06T22:05:20.854Z,5.40
2023-03-06T22:07:48.344Z,4.85
2023-03-06T22:10:15.917Z,4.80
2023-03-06T22:12:45.760Z,4.93
2023-03-06T22:15:13.293Z,4.85
2023-03-06T22:17:41.540Z,4.75
2023-03-06T22:20:09.665Z,5.57
2023-03-06T22:22:37.250Z,5.75
2023-03-06T22:25:05.362Z,6.35
2023-03-06T22:27:32.845Z,10.93
2023-03-06T22:30:01.720Z,8.15
2023-03-06T22:32:29.634Z,5.30
2023-03-06T22:34:57.174Z,4.75
2023-03-06T22:37:24.744Z,5.00
2023-03-06T22:39:52.256Z,5.05
2023-03-06T22:42:19.767Z,4.20
2023-03-06T22:44:47.452Z,4.00
2023-03-06T22:47:16.371Z,4.00
2023-03-06T22:49:43.917Z,4.38
2023-03-06T22:52:12.072Z,4.03
2023-03-06T22:54:40.372Z,3.83
2023-03-06T22:57:07.834Z,3.47
2023-03-06T22:59:35.321Z,4.13
2023-03-06T23:02:03.661Z,4.07
2023-03-06T23:04:32.539Z,3.65
2023-03-06T23:07:00.066Z,3.63
2023-03-06T23:09:27.560Z,4.20
2023-03-06T23:11:55.094Z,3.58
2023-03-06T23:14:22.622Z,3.25
2023-03-06T23:16:50.104Z,4.07
2023-03-06T23:19:17.751Z,3.65
2023-03-06T23:21:46.934Z,3.95
2023-03-06T23:24:14.449Z,4.20
2023-03-06T23:26:41.936Z,3.53
2023-03-06T23:29:09.527Z,4.03
2023-03-06T23:31:37.319Z,4.13
2023-03-06T23:34:05.980Z,5.00
2023-03-06T23:36:33.482Z,4.45
2023-03-06T23:39:02.371Z,4.22
2023-03-06T23:41:29.830Z,4.38
2023-03-06T23:43:57.359Z,4.47
2023-03-06T23:46:24.957Z,4.93
2023-03-06T23:48:53.006Z,5.05
2023-03-06T23:51:21.236Z,3.83
2023-03-06T23:53:53.752Z,4.88
2023-03-06T23:56:22.765Z,5.07
2023-03-06T23:58:50.305Z,5.07
